Time;durP1;ratioP1;P1;durP2;ratioP2;P2;SDS_P1;SDS_P2;PMS_P1;PMS_P2;Temp;Humidity;BMP_temperature;BMP_pressure;BME280_temperature;BME280_humidity;BME280_pressure;Samples;Min_cycle;Max_cycle;Signal;HPM_P1;HPM_P2
2021/08/20 00:00:49;;;;;;;;;;;25.80;59.60;;;;;;4990824;28;19973;-62
2021/08/20 00:03:42;;;;;;;;;;;25.80;59.60;;;;;;4991724;28;19926;-62
2021/08/20 00:06:10;;;;;;;;;;;25.80;59.60;;;;;;4991616;28;20297;-62
2021/08/20 00:08:37;;;;;;;;;;;25.80;59.60;;;;;;4990636;28;19926;-63
2021/08/20 00:11:08;;;;;;;;;;;25.80;59.60;;;;;;4991602;28;19986;-62
2021/08/20 00:13:35;;;;;;;;;;;25.80;59.60;;;;;;4991517;28;19978;-62
2021/08/20 00:16:02;;;;;;;;;;;25.80;59.60;;;;;;4991293;28;19984;-62
2021/08/20 00:18:30;;;;;;;;;;;25.80;59.60;;;;;;4990297;28;19925;-62
2021/08/20 00:20:57;;;;;;;;;;;25.80;59.60;;;;;;4991152;28;19925;-62
2021/08/20 00:23:24;;;;;;;;;;;25.80;59.60;;;;;;4990976;28;19948;-62
2021/08/20 00:25:51;;;;;;;;;;;25.80;59.60;;;;;;4991091;28;20016;-63
2021/08/20 00:28:19;;;;;;;;;;;25.70;59.50;;;;;;4991418;28;19926;-63
2021/08/20 00:30:47;;;;;;;;;;;25.80;59.60;;;;;;4990109;28;19929;-62
2021/08/20 00:33:15;;;;;;;;;;;25.80;59.60;;;;;;4991140;28;20289;-63
2021/08/20 00:35:42;;;;;;;;;;;25.80;59.60;;;;;;4990189;28;19981;-62
2021/08/20 00:38:09;;;;;;;;;;;25.80;59.60;;;;;;4990086;28;19971;-62
2021/08/20 00:40:36;;;;;;;;;;;25.70;59.50;;;;;;4991425;28;19926;-63
2021/08/20 00:43:04;;;;;;;;;;;25.70;59.50;;;;;;4990936;28;19926;-63
2021/08/20 00:45:31;;;;;;;;;;;25.80;59.60;;;;;;4972983;28;20427;-62
2021/08/20 00:47:59;;;;;;;;;;;25.80;59.60;;;;;;4990878;28;20024;-63
2021/08/20 00:50:26;;;;;;;;;;;25.80;59.60;;;;;;4991199;28;19933;-63
2021/08/20 00:52:53;;;;;;;;;;;25.70;59.60;;;;;;4989689;28;19926;-63
2021/08/20 00:55:23;;;;;;;;;;;25.80;59.60;;;;;;4989288;28;19930;-62
2021/08/20 00:57:51;;;;;;;;;;;25.70;59.60;;;;;;4989570;28;19926;-62
2021/08/20 01:00:20;;;;;;;;;;;25.70;59.60;;;;;;4990775;28;20013;-63
2021/08/20 01:02:47;;;;;;;;;;;25.70;59.60;;;;;;4973850;28;19926;-62
2021/08/20 01:05:19;;;;;;;;;;;25.70;59.60;;;;;;4990439;28;19977;-63
2021/08/20 01:07:47;;;;;;;;;;;25.70;59.60;;;;;;4991073;28;20058;-62
2021/08/20 01:10:15;;;;;;;;;;;25.70;59.60;;;;;;4990178;28;19925;-63
2021/08/20 01:12:42;;;;;;;;;;;25.70;59.60;;;;;;4990643;28;20032;-63
2021/08/20 01:15:10;;;;;;;;;;;25.70;59.60;;;;;;4989653;28;19926;-62
2021/08/20 01:17:37;;;;;;;;;;;25.70;59.60;;;;;;4990401;28;19930;-62
2021/08/20 01:20:07;;;;;;;;;;;25.70;59.60;;;;;;4990413;28;19976;-62
2021/08/20 01:22:38;;;;;;;;;;;25.70;59.60;;;;;;4990637;28;19925;-62
2021/08/20 01:25:05;;;;;;;;;;;25.70;59.60;;;;;;4990729;28;19926;-63
2021/08/20 01:27:35;;;;;;;;;;;25.70;59.60;;;;;;4973158;28;19965;-63
2021/08/20 01:30:03;;;;;;;;;;;25.80;59.60;;;;;;4990292;28;20413;-63
2021/08/20 01:32:30;;;;;;;;;;;25.70;59.60;;;;;;4989561;28;19929;-63
2021/08/20 01:34:57;;;;;;;;;;;25.70;59.60;;;;;;4973077;28;19973;-62
2021/08/20 01:37:24;;;;;;;;;;;25.70;59.60;;;;;;4993195;28;20385;-63
2021/08/20 01:39:51;;;;;;;;;;;25.70;59.60;;;;;;4992966;28;19975;-62
2021/08/20 01:42:19;;;;;;;;;;;25.70;59.60;;;;;;4992659;28;19926;-62
2021/08/20 01:44:46;;;;;;;;;;;25.70;59.60;;;;;;4992581;28;19930;-62
2021/08/20 01:47:13;;;;;;;;;;;25.70;59.60;;;;;;4976412;28;20388;-63
2021/08/20 01:49:40;;;;;;;;;;;25.70;59.60;;;;;;4993604;28;19926;-62
2021/08/20 01:52:08;;;;;;;;;;;25.70;59.60;;;;;;4992808;28;20046;-62
2021/08/20 01:54:35;;;;;;;;;;;25.70;59.60;;;;;;4993435;28;20061;-63
2021/08/20 01:57:02;;;;;;;;;;;25.70;59.60;;;;;;4993543;28;19990;-63
2021/08/20 01:59:29;;;;;;;;;;;25.70;59.60;;;;;;4993709;28;19953;-62
2021/08/20 02:01:56;;;;;;;;;;;25.70;59.60;;;;;;4992754;28;19930;-62
2021/08/20 02:04:25;;;;;;;;;;;25.70;59.60;;;;;;4975524;28;19926;-62
2021/08/20 02:06:53;;;;;;;;;;;25.70;59.60;;;;;;4993268;28;19926;-62
2021/08/20 02:09:20;;;;;;;;;;;25.70;59.60;;;;;;4993383;28;19984;-62
2021/08/20 02:11:47;;;;;;;;;;;25.70;59.60;;;;;;4993638;28;19929;-63
2021/08/20 02:14:14;;;;;;;;;;;25.70;59.60;;;;;;4991454;28;20357;-63
2021/08/20 02:16:41;;;;;;;;;;;25.70;59.60;;;;;;4993050;28;20424;-63
2021/08/20 02:19:08;;;;;;;;;;;25.70;59.60;;;;;;4992426;28;19965;-62
2021/08/20 02:21:35;;;;;;;;;;;25.70;59.60;;;;;;4992336;28;19930;-62
2021/08/20 02:24:03;;;;;;;;;;;25.70;59.60;;;;;;4992357;28;19971;-62
2021/08/20 02:26:30;;;;;;;;;;;25.70;59.60;;;;;;4993022;28;20404;-62
2021/08/20 02:28:57;;;;;;;;;;;25.70;59.60;;;;;;4993048;28;19933;-63
2021/08/20 02:31:24;;;;;;;;;;;25.70;59.60;;;;;;4976099;28;19980;-62
2021/08/20 02:33:51;;;;;;;;;;;25.70;59.60;;;;;;4993261;28;20359;-62
2021/08/20 02:36:18;;;;;;;;;;;25.70;59.60;;;;;;4991703;28;19961;-62
2021/08/20 02:38:45;;;;;;;;;;;25.70;59.50;;;;;;4991882;28;19972;-62
2021/08/20 02:41:12;;;;;;;;;;;25.70;59.50;;;;;;4992809;28;19961;-64
2021/08/20 02:43:39;;;;;;;;;;;25.70;59.60;;;;;;4992640;28;19978;-62
2021/08/20 02:46:06;;;;;;;;;;;25.70;59.60;;;;;;4992777;28;19977;-62
2021/08/20 02:48:33;;;;;;;;;;;25.70;59.60;;;;;;4992649;28;19926;-62
2021/08/20 02:51:01;;;;;;;;;;;25.70;59.50;;;;;;4992691;28;19926;-63
2021/08/20 02:53:28;;;;;;;;;;;25.70;59.50;;;;;;4991563;28;20404;-62
2021/08/20 02:55:54;;;;;;;;;;;25.70;59.50;;;;;;4974019;28;20008;-63
2021/08/20 02:58:21;;;;;;;;;;;25.70;59.50;;;;;;4991375;28;20008;-63
2021/08/20 03:00:49;;;;;;;;;;;25.70;59.50;;;;;;4992720;28;20381;-63
2021/08/20 03:03:16;;;;;;;;;;;25.70;59.50;;;;;;4993182;28;19925;-63
2021/08/20 03:05:43;;;;;;;;;;;25.70;59.50;;;;;;5006512;28;19932;-63
2021/08/20 03:08:10;;;;;;;;;;;25.70;59.50;;;;;;4991569;28;19932;-63
2021/08/20 03:10:37;;;;;;;;;;;25.70;59.40;;;;;;4991334;28;19980;-62
2021/08/20 03:13:04;;;;;;;;;;;25.70;59.50;;;;;;4992372;28;19926;-63
2021/08/20 03:15:31;;;;;;;;;;;25.70;59.60;;;;;;4992289;28;19926;-63
2021/08/20 03:17:58;;;;;;;;;;;25.70;59.60;;;;;;4991301;28;19937;-62
2021/08/20 03:20:25;;;;;;;;;;;25.70;59.60;;;;;;4992161;28;19975;-63
2021/08/20 03:22:52;;;;;;;;;;;25.70;59.50;;;;;;4991223;28;19926;-62
2021/08/20 03:25:20;;;;;;;;;;;25.70;59.50;;;;;;4991684;28;19930;-62
2021/08/20 03:27:47;;;;;;;;;;;25.70;59.50;;;;;;4991925;28;20381;-62
2021/08/20 03:30:14;;;;;;;;;;;25.70;59.50;;;;;;4992200;28;20442;-63
2021/08/20 03:32:41;;;;;;;;;;;25.70;59.50;;;;;;4990997;28;19957;-63
2021/08/20 03:35:08;;;;;;;;;;;25.70;59.50;;;;;;4991269;28;19926;-64
2021/08/20 03:37:39;;;;;;;;;;;25.70;59.50;;;;;;4991188;28;19935;-63
2021/08/20 03:40:07;;;;;;;;;;;25.70;59.60;;;;;;4991294;28;20357;-63
2021/08/20 03:42:34;;;;;;;;;;;25.70;59.60;;;;;;4990896;28;19926;-63
2021/08/20 03:45:01;;;;;;;;;;;25.70;59.50;;;;;;4991111;28;19926;-63
2021/08/20 03:47:28;;;;;;;;;;;25.70;59.50;;;;;;4973540;28;19926;-63
2021/08/20 03:49:55;;;;;;;;;;;25.70;59.50;;;;;;4991807;28;19929;-63
2021/08/20 03:52:23;;;;;;;;;;;25.70;59.50;;;;;;4991023;28;20325;-63
2021/08/20 03:54:50;;;;;;;;;;;25.70;59.50;;;;;;4991035;28;20293;-63
2021/08/20 03:57:17;;;;;;;;;;;25.70;59.50;;;;;;4990592;28;20017;-63
2021/08/20 03:59:44;;;;;;;;;;;25.70;59.40;;;;;;4991145;28;20012;-63
2021/08/20 04:02:11;;;;;;;;;;;25.70;59.50;;;;;;4991081;28;20037;-64
2021/08/20 04:04:38;;;;;;;;;;;25.70;59.50;;;;;;4992038;28;20353;-63
2021/08/20 04:07:05;;;;;;;;;;;25.70;59.40;;;;;;4991505;28;19979;-63
2021/08/20 04:09:32;;;;;;;;;;;25.70;59.40;;;;;;4991381;28;19930;-63
2021/08/20 04:12:00;;;;;;;;;;;25.70;59.40;;;;;;4990342;28;20005;-63
2021/08/20 04:14:27;;;;;;;;;;;25.70;59.40;;;;;;4973246;28;20005;-63
2021/08/20 04:16:55;;;;;;;;;;;25.70;59.40;;;;;;4990232;28;20389;-63
2021/08/20 04:19:22;;;;;;;;;;;25.70;59.40;;;;;;4991256;28;19973;-63
2021/08/20 04:21:49;;;;;;;;;;;25.70;59.40;;;;;;4990311;28;19975;-63
2021/08/20 04:24:17;;;;;;;;;;;25.70;59.40;;;;;;4990573;28;19926;-63
2021/08/20 04:26:45;;;;;;;;;;;25.70;59.40;;;;;;4991047;28;19933;-64
2021/08/20 04:29:12;;;;;;;;;;;25.70;60.00;;;;;;4990180;28;20385;-64
2021/08/20 04:31:40;;;;;;;;;;;25.70;59.40;;;;;;4990285;28;19926;-64
2021/08/20 04:34:07;;;;;;;;;;;25.70;59.40;;;;;;4990049;28;19926;-64
2021/08/20 04:36:34;;;;;;;;;;;25.70;59.40;;;;;;4991276;28;19926;-64
2021/08/20 04:39:02;;;;;;;;;;;25.70;59.40;;;;;;4991006;28;19955;-64
2021/08/20 04:41:29;;;;;;;;;;;25.70;59.40;;;;;;4990987;28;19926;-63
2021/08/20 04:43:57;;;;;;;;;;;25.70;59.30;;;;;;4990134;28;20323;-63
2021/08/20 04:46:24;;;;;;;;;;;25.70;59.30;;;;;;4991176;28;19933;-64
2021/08/20 04:48:52;;;;;;;;;;;25.70;59.30;;;;;;4990032;28;20157;-64
2021/08/20 04:51:19;;;;;;;;;;;25.70;59.20;;;;;;4991013;28;19965;-64
2021/08/20 04:53:48;;;;;;;;;;;25.70;59.20;;;;;;4991371;28;20066;-63
2021/08/20 04:56:15;;;;;;;;;;;25.80;59.20;;;;;;4989994;28;19926;-63
2021/08/20 04:58:42;;;;;;;;;;;25.70;59.10;;;;;;4991194;28;19926;-62
2021/08/20 05:01:10;;;;;;;;;;;25.70;59.10;;;;;;4990147;28;19925;-63
2021/08/20 05:03:38;;;;;;;;;;;25.70;59.10;;;;;;4990048;28;20037;-63
2021/08/20 05:06:05;;;;;;;;;;;25.80;59.10;;;;;;4990947;28;20008;-63
2021/08/20 05:08:33;;;;;;;;;;;25.80;59.10;;;;;;4990678;28;19926;-64
2021/08/20 05:11:00;;;;;;;;;;;25.80;59.00;;;;;;4988490;28;19965;-65
2021/08/20 05:13:27;;;;;;;;;;;25.80;59.00;;;;;;4990858;28;20024;-64
2021/08/20 05:15:54;;;;;;;;;;;25.80;59.00;;;;;;4989783;28;19926;-64
2021/08/20 05:18:21;;;;;;;;;;;25.90;59.00;;;;;;4990457;28;19976;-64
2021/08/20 05:20:48;;;;;;;;;;;25.80;58.90;;;;;;4989656;28;19926;-63
2021/08/20 05:23:16;;;;;;;;;;;25.80;58.80;;;;;;4990761;28;20013;-64
2021/08/20 05:25:43;;;;;;;;;;;25.80;58.80;;;;;;4989402;28;19932;-63
2021/08/20 05:28:12;;;;;;;;;;;25.90;58.80;;;;;;4990516;28;19968;-64
2021/08/20 05:30:40;;;;;;;;;;;25.90;58.70;;;;;;4989192;28;19926;-64
2021/08/20 05:33:07;;;;;;;;;;;25.90;58.70;;;;;;4990557;28;19984;-63
2021/08/20 05:35:34;;;;;;;;;;;25.90;58.60;;;;;;4989437;28;19926;-63
2021/08/20 05:38:02;;;;;;;;;;;25.90;58.60;;;;;;4988949;28;20373;-63
2021/08/20 05:40:29;;;;;;;;;;;26.00;58.60;;;;;;4990406;28;19926;-62
2021/08/20 05:42:58;;;;;;;;;;;26.00;58.50;;;;;;4989476;28;19930;-62
2021/08/20 05:45:25;;;;;;;;;;;26.00;58.60;;;;;;4972977;28;19952;-63
2021/08/20 05:47:52;;;;;;;;;;;26.00;58.50;;;;;;4990212;28;19926;-62
2021/08/20 05:50:19;;;;;;;;;;;26.00;58.40;;;;;;4990607;28;19926;-63
2021/08/20 05:52:47;;;;;;;;;;;26.00;58.40;;;;;;4990125;28;20170;-63
2021/08/20 05:55:15;;;;;;;;;;;26.10;58.50;;;;;;4990009;28;19926;-63
2021/08/20 05:57:42;;;;;;;;;;;26.00;58.40;;;;;;4989001;28;19987;-63
2021/08/20 06:00:09;;;;;;;;;;;26.10;58.40;;;;;;4989141;28;19979;-62
2021/08/20 06:02:38;;;;;;;;;;;26.00;58.30;;;;;;4990160;28;20336;-63
2021/08/20 06:05:06;;;;;;;;;;;26.10;58.30;;;;;;4989304;28;19930;-62
2021/08/20 06:07:33;;;;;;;;;;;26.10;58.20;;;;;;4989729;28;20020;-62
2021/08/20 06:10:00;;;;;;;;;;;26.10;58.20;;;;;;4989746;28;19925;-62
2021/08/20 06:12:29;;;;;;;;;;;26.10;58.10;;;;;;4988522;28;19975;-62
2021/08/20 06:14:57;;;;;;;;;;;26.10;58.10;;;;;;4988550;28;19933;-62
2021/08/20 06:17:24;;;;;;;;;;;26.10;58.00;;;;;;4989681;28;19941;-62
2021/08/20 06:19:51;;;;;;;;;;;26.10;58.00;;;;;;4971508;28;20366;-62
2021/08/20 06:22:18;;;;;;;;;;;26.20;58.10;;;;;;4990993;28;20461;-62
2021/08/20 06:24:46;;;;;;;;;;;26.20;58.00;;;;;;4993341;28;19926;-62
2021/08/20 06:27:13;;;;;;;;;;;26.20;58.00;;;;;;4993188;28;19926;-62
2021/08/20 06:29:40;;;;;;;;;;;26.20;58.00;;;;;;4993135;28;20436;-62
2021/08/20 06:32:08;;;;;;;;;;;26.10;58.00;;;;;;4993040;28;20286;-62
2021/08/20 06:34:35;;;;;;;;;;;26.10;58.00;;;;;;4992849;28;19926;-62
2021/08/20 06:37:02;;;;;;;;;;;26.20;58.00;;;;;;4992682;28;19926;-62
2021/08/20 06:39:30;;;;;;;;;;;26.20;57.90;;;;;;4992040;28;20355;-61
2021/08/20 06:41:57;;;;;;;;;;;26.20;57.90;;;;;;4992703;28;20482;-62
2021/08/20 06:44:24;;;;;;;;;;;26.20;57.90;;;;;;4991593;28;19979;-62
2021/08/20 06:46:51;;;;;;;;;;;26.20;57.90;;;;;;4992735;28;19926;-62
2021/08/20 06:49:18;;;;;;;;;;;26.20;57.80;;;;;;4976178;28;19926;-62
2021/08/20 06:51:46;;;;;;;;;;;26.20;57.80;;;;;;4992755;28;19951;-62
2021/08/20 06:54:13;;;;;;;;;;;26.20;57.80;;;;;;4992426;28;19965;-63
2021/08/20 06:56:40;;;;;;;;;;;26.30;57.80;;;;;;4992812;28;20014;-62
2021/08/20 06:59:07;;;;;;;;;;;26.30;57.80;;;;;;4991701;28;19977;-62
2021/08/20 07:01:34;;;;;;;;;;;26.30;57.70;;;;;;4991868;28;19932;-63
2021/08/20 07:04:02;;;;;;;;;;;26.30;57.60;;;;;;4991334;28;19969;-62
2021/08/20 07:06:38;;;;;;;;;;;26.30;57.50;;;;;;4992285;28;19926;-63
2021/08/20 07:09:10;;;;;;;;;;;26.40;57.50;;;;;;4991682;28;19926;-62
2021/08/20 07:11:37;;;;;;;;;;;26.40;57.40;;;;;;4992318;28;19937;-63
2021/08/20 07:14:05;;;;;;;;;;;26.40;57.40;;;;;;4992575;28;19979;-62
2021/08/20 07:16:32;;;;;;;;;;;26.40;57.30;;;;;;4992219;28;19926;-62
2021/08/20 07:18:59;;;;;;;;;;;26.50;57.30;;;;;;4992546;28;20279;-63
2021/08/20 07:21:27;;;;;;;;;;;26.50;57.30;;;;;;4992235;28;19926;-62
2021/08/20 07:23:54;;;;;;;;;;;26.50;57.20;;;;;;4991388;28;20335;-62
2021/08/20 07:26:21;;;;;;;;;;;26.50;57.20;;;;;;4992370;28;20328;-63
2021/08/20 07:28:48;;;;;;;;;;;26.50;57.20;;;;;;4992231;28;20266;-62
2021/08/20 07:31:15;;;;;;;;;;;26.50;57.20;;;;;;4974004;28;20017;-63
2021/08/20 07:33:43;;;;;;;;;;;26.50;57.20;;;;;;4991225;28;20354;-62
2021/08/20 07:36:10;;;;;;;;;;;26.50;57.20;;;;;;4992367;28;19926;-62
2021/08/20 07:38:37;;;;;;;;;;;26.50;57.20;;;;;;4991765;28;19971;-62
2021/08/20 07:41:04;;;;;;;;;;;26.50;57.70;;;;;;4991853;28;19973;-62
2021/08/20 07:43:31;;;;;;;;;;;26.60;57.10;;;;;;4990657;28;20024;-62
2021/08/20 07:45:59;;;;;;;;;;;26.60;57.10;;;;;;4991708;28;20385;-62
2021/08/20 07:48:27;;;;;;;;;;;26.60;57.10;;;;;;4991810;28;20389;-62
2021/08/20 07:50:54;;;;;;;;;;;26.70;57.10;;;;;;4975011;28;20044;-62
2021/08/20 07:53:22;;;;;;;;;;;26.70;57.00;;;;;;4991793;28;19932;-62
2021/08/20 07:55:49;;;;;;;;;;;26.70;56.90;;;;;;4990914;28;19976;-63
2021/08/20 07:58:16;;;;;;;;;;;26.70;56.80;;;;;;4991870;28;20290;-63
2021/08/20 08:00:43;;;;;;;;;;;26.70;56.70;;;;;;4990544;28;19959;-63
2021/08/20 08:03:11;;;;;;;;;;;26.80;56.80;;;;;;4991511;28;19932;-62
2021/08/20 08:05:38;;;;;;;;;;;26.70;56.80;;;;;;4990704;28;19975;-63
2021/08/20 08:08:06;;;;;;;;;;;26.70;56.80;;;;;;4991804;28;20012;-62
2021/08/20 08:10:33;;;;;;;;;;;26.70;56.80;;;;;;4990693;28;20374;-62
2021/08/20 08:13:00;;;;;;;;;;;26.70;56.80;;;;;;4991693;28;19926;-62
2021/08/20 08:15:27;;;;;;;;;;;26.70;56.80;;;;;;4990660;28;19925;-62
2021/08/20 08:17:58;;;;;;;;;;;26.70;56.90;;;;;;4990455;28;20281;-62
2021/08/20 08:20:25;;;;;;;;;;;26.70;56.90;;;;;;4991324;28;19930;-62
2021/08/20 08:22:52;;;;;;;;;;;26.70;56.80;;;;;;4990464;28;19926;-62
2021/08/20 08:25:20;;;;;;;;;;;26.70;56.90;;;;;;4991378;28;20270;-62
2021/08/20 08:27:48;;;;;;;;;;;26.80;56.90;;;;;;4990388;28;19926;-62
2021/08/20 08:30:17;;;;;;;;;;;26.70;56.80;;;;;;4990068;28;19926;-62
2021/08/20 08:32:44;;;;;;;;;;;26.70;56.80;;;;;;4991337;28;19933;-62
2021/08/20 08:35:12;;;;;;;;;;;26.70;56.80;;;;;;4990156;28;20016;-63
2021/08/20 08:37:39;;;;;;;;;;;26.80;56.80;;;;;;4991329;28;19956;-62
2021/08/20 08:40:07;;;;;;;;;;;26.80;56.70;;;;;;4990174;28;19925;-62
2021/08/20 08:42:35;;;;;;;;;;;26.90;56.70;;;;;;4989784;28;19934;-63
2021/08/20 08:45:03;;;;;;;;;;;26.80;56.60;;;;;;4991119;28;20008;-63
2021/08/20 08:47:34;;;;;;;;;;;26.90;56.60;;;;;;4990511;28;19926;-62
2021/08/20 08:50:03;;;;;;;;;;;26.90;56.50;;;;;;4991148;28;19925;-63
2021/08/20 08:52:31;;;;;;;;;;;26.90;56.50;;;;;;4989860;28;20033;-62
2021/08/20 08:55:02;;;;;;;;;;;26.90;56.60;;;;;;4990221;28;19972;-62
2021/08/20 08:57:30;;;;;;;;;;;26.90;56.40;;;;;;4989745;28;19926;-62
2021/08/20 08:59:57;;;;;;;;;;;26.90;56.50;;;;;;4990478;28;19926;-63
2021/08/20 09:02:25;;;;;;;;;;;26.90;56.50;;;;;;4990885;28;20008;-62
2021/08/20 09:05:00;;;;;;;;;;;27.00;56.50;;;;;;4990926;28;19925;-62
2021/08/20 09:07:31;;;;;;;;;;;27.00;56.50;;;;;;4989637;28;19926;-62
2021/08/20 09:10:11;;;;;;;;;;;27.00;56.40;;;;;;4989619;28;20027;-62
2021/08/20 09:12:50;;;;;;;;;;;27.00;56.30;;;;;;4989815;28;19979;-62
2021/08/20 09:15:19;;;;;;;;;;;27.00;56.30;;;;;;4990773;28;20308;-63
2021/08/20 09:17:53;;;;;;;;;;;27.00;56.30;;;;;;4991025;28;19932;-62
2021/08/20 09:20:22;;;;;;;;;;;27.00;56.30;;;;;;4990594;28;19964;-62
2021/08/20 09:22:50;;;;;;;;;;;27.00;56.30;;;;;;4989458;28;19926;-63
2021/08/20 09:25:37;;;;;;;;;;;27.10;56.30;;;;;;4989301;28;20429;-62
2021/08/20 09:28:22;;;;;;;;;;;27.00;56.30;;;;;;4990790;28;20012;-62
2021/08/20 09:30:55;;;;;;;;;;;27.00;56.30;;;;;;4990529;28;20025;-62
2021/08/20 09:33:24;;;;;;;;;;;27.10;56.40;;;;;;4990407;28;19972;-62
2021/08/20 09:36:08;;;;;;;;;;;27.00;56.30;;;;;;4972245;28;20017;-63
2021/08/20 09:38:39;;;;;;;;;;;27.00;56.40;;;;;;4989507;28;19964;-62
2021/08/20 09:41:14;;;;;;;;;;;27.00;56.40;;;;;;4990532;28;20293;-62
2021/08/20 09:43:46;;;;;;;;;;;27.00;56.40;;;;;;4989172;28;19930;-63
2021/08/20 09:46:17;;;;;;;;;;;27.00;56.30;;;;;;4990246;28;20341;-63
2021/08/20 09:48:50;;;;;;;;;;;27.00;56.40;;;;;;4989860;28;19926;-61
2021/08/20 09:51:37;;;;;;;;;;;27.00;56.40;;;;;;4989632;28;19925;-62
2021/08/20 09:54:05;;;;;;;;;;;27.00;56.30;;;;;;4983068;28;19926;-61
2021/08/20 09:56:46;;;;;;;;;;;27.00;56.30;;;;;;4973795;28;20298;-62
2021/08/20 09:59:14;;;;;;;;;;;27.00;56.30;;;;;;4986790;28;19926;-63
2021/08/20 10:01:42;;;;;;;;;;;27.00;56.40;;;;;;4993303;28;19930;-62
2021/08/20 10:04:11;;;;;;;;;;;27.10;56.50;;;;;;4993125;28;19933;-62
2021/08/20 10:06:39;;;;;;;;;;;27.00;56.40;;;;;;4993672;28;19961;-63
2021/08/20 10:09:10;;;;;;;;;;;27.10;56.50;;;;;;4992562;28;19932;-62
2021/08/20 10:11:56;;;;;;;;;;;27.10;56.40;;;;;;4975484;28;20387;-63
2021/08/20 10:14:24;;;;;;;;;;;27.10;56.40;;;;;;4992618;28;19933;-63
2021/08/20 10:16:51;;;;;;;;;;;27.10;56.40;;;;;;4993437;28;20008;-62
2021/08/20 10:19:18;;;;;;;;;;;27.10;56.30;;;;;;4993371;28;20420;-63
2021/08/20 10:21:46;;;;;;;;;;;27.10;56.40;;;;;;4993599;28;20271;-62
2021/08/20 10:24:14;;;;;;;;;;;27.10;56.40;;;;;;4992274;28;19968;-63
2021/08/20 10:26:45;;;;;;;;;;;27.10;56.40;;;;;;4975774;28;20001;-61
2021/08/20 10:29:14;;;;;;;;;;;27.10;56.40;;;;;;4974881;28;19926;-62
2021/08/20 10:31:42;;;;;;;;;;;27.10;56.30;;;;;;4992893;28;19930;-62
2021/08/20 10:34:28;;;;;;;;;;;27.10;56.30;;;;;;4992852;28;19926;-63
2021/08/20 10:37:14;;;;;;;;;;;27.10;56.30;;;;;;4992077;28;19926;-63
2021/08/20 10:39:45;;;;;;;;;;;27.20;56.40;;;;;;4993005;28;19963;-63
2021/08/20 10:42:16;;;;;;;;;;;27.20;56.40;;;;;;4991556;28;20434;-64
2021/08/20 10:44:51;;;;;;;;;;;27.20;56.30;;;;;;4992675;28;19926;-62
2021/08/20 10:47:25;;;;;;;;;;;27.10;56.20;;;;;;4991663;28;20075;-62
2021/08/20 10:50:12;;;;;;;;;;;27.20;56.40;;;;;;4992742;28;19978;-64
2021/08/20 10:52:44;;;;;;;;;;;27.10;56.30;;;;;;4992577;28;19932;-63
2021/08/20 10:55:13;;;;;;;;;;;27.10;56.40;;;;;;4992190;28;19979;-62
2021/08/20 10:57:42;;;;;;;;;;;27.10;56.40;;;;;;4992423;28;19925;-63
2021/08/20 11:00:21;;;;;;;;;;;27.10;56.40;;;;;;4991815;28;20012;-63
2021/08/20 11:02:49;;;;;;;;;;;27.10;56.40;;;;;;4992488;28;19930;-62
2021/08/20 11:05:16;;;;;;;;;;;27.20;56.40;;;;;;4992580;28;19971;-63
2021/08/20 11:07:46;;;;;;;;;;;27.20;56.40;;;;;;4992073;28;19926;-63
2021/08/20 11:10:14;;;;;;;;;;;27.10;56.30;;;;;;4990743;28;19932;-62
2021/08/20 11:12:49;;;;;;;;;;;27.10;56.30;;;;;;4974398;28;20372;-62
2021/08/20 11:15:23;;;;;;;;;;;27.10;56.30;;;;;;4992346;28;19969;-62
2021/08/20 11:17:52;;;;;;;;;;;27.20;56.40;;;;;;4992442;28;19925;-62
2021/08/20 11:20:24;;;;;;;;;;;27.20;56.40;;;;;;4991251;28;19983;-63
2021/08/20 11:23:05;;;;;;;;;;;27.10;56.30;;;;;;4996903;28;19961;-63
2021/08/20 11:25:36;;;;;;;;;;;27.10;56.40;;;;;;4992223;28;19980;-62
2021/08/20 11:28:04;;;;;;;;;;;27.10;56.40;;;;;;4990925;28;19971;-63
2021/08/20 11:30:33;;;;;;;;;;;27.10;56.50;;;;;;4992081;28;19956;-63
2021/08/20 11:33:14;;;;;;;;;;;27.10;56.50;;;;;;4992230;28;19957;-62
2021/08/20 11:35:42;;;;;;;;;;;27.10;56.50;;;;;;4973692;28;20373;-63
2021/08/20 11:38:09;;;;;;;;;;;27.10;56.60;;;;;;4990913;28;19948;-62
2021/08/20 11:40:49;;;;;;;;;;;27.10;56.50;;;;;;4991941;28;19975;-63
2021/08/20 11:43:17;;;;;;;;;;;27.10;56.60;;;;;;4990968;28;19947;-62
2021/08/20 11:45:44;;;;;;;;;;;27.10;56.50;;;;;;4991830;28;20001;-62
2021/08/20 11:48:11;;;;;;;;;;;27.10;56.50;;;;;;4991007;28;19926;-62
2021/08/20 11:50:39;;;;;;;;;;;27.10;56.50;;;;;;4991085;28;20071;-62
2021/08/20 11:53:06;;;;;;;;;;;27.10;56.40;;;;;;4990688;28;19975;-63
2021/08/20 11:55:33;;;;;;;;;;;27.10;56.40;;;;;;4991384;28;20009;-62
2021/08/20 11:58:25;;;;;;;;;;;27.20;56.50;;;;;;4991571;28;20017;-62
2021/08/20 12:00:52;;;;;;;;;;;27.10;56.40;;;;;;4991583;28;19939;-63
2021/08/20 12:03:23;;;;;;;;;;;27.20;56.40;;;;;;4990661;28;19969;-62
2021/08/20 12:06:04;;;;;;;;;;;27.20;56.40;;;;;;4991496;28;20420;-62
2021/08/20 12:08:32;;;;;;;;;;;27.20;56.40;;;;;;4991590;28;19929;-62
2021/08/20 12:10:59;;;;;;;;;;;27.20;56.30;;;;;;4991551;28;19934;-62
2021/08/20 12:13:27;;;;;;;;;;;27.20;56.30;;;;;;4990508;28;19926;-62
2021/08/20 12:15:55;;;;;;;;;;;27.20;56.40;;;;;;4991359;28;19929;-62
2021/08/20 12:18:23;;;;;;;;;;;27.20;56.40;;;;;;4973157;28;19925;-62
2021/08/20 12:20:51;;;;;;;;;;;27.20;56.40;;;;;;4989628;28;19979;-62
2021/08/20 12:23:19;;;;;;;;;;;27.20;56.40;;;;;;4990316;28;20009;-62
2021/08/20 12:25:46;;;;;;;;;;;27.20;56.40;;;;;;4991285;28;19947;-62
2021/08/20 12:28:38;;;;;;;;;;;27.20;56.40;;;;;;4990115;28;20013;-62
2021/08/20 12:31:06;;;;;;;;;;;27.20;56.50;;;;;;4991271;28;19984;-62
2021/08/20 12:33:33;;;;;;;;;;;27.20;56.50;;;;;;4990199;28;19948;-62
2021/08/20 12:36:00;;;;;;;;;;;27.20;56.50;;;;;;4991093;28;19934;-62
2021/08/20 12:38:27;;;;;;;;;;;27.20;56.50;;;;;;4991454;28;19925;-62
2021/08/20 12:41:02;;;;;;;;;;;27.20;56.60;;;;;;4990289;28;20382;-62
2021/08/20 12:43:39;;;;;;;;;;;27.20;56.50;;;;;;4973225;28;19926;-63
2021/08/20 12:46:12;;;;;;;;;;;27.10;56.50;;;;;;4973275;28;19934;-62
2021/08/20 12:48:40;;;;;;;;;;;27.20;56.50;;;;;;4989307;28;20033;-62
2021/08/20 12:51:08;;;;;;;;;;;27.10;56.40;;;;;;4991032;28;19996;-62
2021/08/20 12:53:36;;;;;;;;;;;27.20;56.60;;;;;;4991033;28;20331;-63
2021/08/20 12:56:04;;;;;;;;;;;27.10;56.50;;;;;;4990314;28;19933;-62
2021/08/20 12:58:32;;;;;;;;;;;27.10;56.60;;;;;;4989787;28;19932;-62
2021/08/20 13:01:09;;;;;;;;;;;27.10;56.60;;;;;;4989434;28;20205;-62
2021/08/20 13:03:36;;;;;;;;;;;27.10;56.70;;;;;;4989860;28;20305;-62
2021/08/20 13:06:07;;;;;;;;;;;27.10;56.80;;;;;;4991093;28;20008;-62
2021/08/20 13:08:34;;;;;;;;;;;27.00;56.80;;;;;;4990760;28;20351;-62
2021/08/20 13:11:03;;;;;;;;;;;27.00;56.90;;;;;;4989545;28;19934;-62
2021/08/20 13:13:30;;;;;;;;;;;26.90;56.90;;;;;;4990347;28;19965;-62
2021/08/20 13:15:57;;;;;;;;;;;26.90;56.90;;;;;;4989540;28;19925;-62
2021/08/20 13:18:25;;;;;;;;;;;26.90;57.10;;;;;;4990815;28;19926;-62
2021/08/20 13:20:53;;;;;;;;;;;26.90;57.20;;;;;;4989367;28;19971;-62
2021/08/20 13:23:20;;;;;;;;;;;26.80;57.20;;;;;;4990726;28;19957;-63
2021/08/20 13:25:47;;;;;;;;;;;26.80;57.20;;;;;;4990407;28;20038;-62
2021/08/20 13:28:14;;;;;;;;;;;26.80;57.30;;;;;;4989276;28;20015;-62
2021/08/20 13:30:42;;;;;;;;;;;26.80;57.40;;;;;;4989445;28;19926;-63
2021/08/20 13:33:09;;;;;;;;;;;26.80;57.40;;;;;;4989595;28;19937;-63
2021/08/20 13:35:36;;;;;;;;;;;26.70;57.40;;;;;;4990227;28;20008;-62
2021/08/20 13:38:03;;;;;;;;;;;26.70;57.40;;;;;;4990299;28;19926;-62
2021/08/20 13:40:37;;;;;;;;;;;26.70;57.50;;;;;;4989480;28;20016;-62
2021/08/20 13:43:09;;;;;;;;;;;26.70;57.50;;;;;;4990317;28;20014;-62
2021/08/20 13:45:38;;;;;;;;;;;26.70;57.50;;;;;;4989255;28;19926;-62
2021/08/20 13:48:06;;;;;;;;;;;26.70;57.60;;;;;;4989501;28;19926;-62
2021/08/20 13:50:33;;;;;;;;;;;26.70;57.60;;;;;;4989099;28;20293;-62
2021/08/20 13:53:01;;;;;;;;;;;26.70;57.60;;;;;;4989055;28;19992;-62
2021/08/20 13:55:28;;;;;;;;;;;26.70;57.60;;;;;;4989902;28;20279;-62
2021/08/20 13:57:56;;;;;;;;;;;26.70;57.60;;;;;;4973168;28;19926;-62
2021/08/20 14:00:24;;;;;;;;;;;26.70;57.60;;;;;;4989377;28;19926;-62
2021/08/20 14:02:51;;;;;;;;;;;26.70;57.60;;;;;;4990059;28;20004;-62
2021/08/20 14:05:19;;;;;;;;;;;26.70;57.60;;;;;;4989512;28;20595;-62
2021/08/20 14:07:46;;;;;;;;;;;26.70;57.60;;;;;;4988954;28;20003;-62
2021/08/20 14:10:17;;;;;;;;;;;26.70;57.60;;;;;;4989074;28;20365;-63
2021/08/20 14:12:58;;;;;;;;;;;26.70;57.60;;;;;;4989186;28;19933;-62
2021/08/20 14:15:25;;;;;;;;;;;26.60;57.60;;;;;;4989090;28;19926;-63
2021/08/20 14:17:53;;;;;;;;;;;26.60;57.60;;;;;;4989861;28;19925;-62
2021/08/20 14:20:21;;;;;;;;;;;26.70;57.60;;;;;;4989743;28;19979;-62
2021/08/20 14:22:48;;;;;;;;;;;26.60;57.60;;;;;;4989865;28;19926;-63
2021/08/20 14:25:16;;;;;;;;;;;26.60;57.60;;;;;;4989847;28;19961;-63